TimeCST,TemperatureF,Dew PointF,Humidity,Sea Level PressureIn,VisibilityMPH,Wind Direction,Wind SpeedMPH,Gust SpeedMPH,PrecipitationIn,Events,Conditions,WindDirDegrees,DateUTC
12:15 AM,27.5,26.1,94,29.66,7.0,West,5.8,-,N/A,,Clear,260,2014-01-11 06:15:00
12:35 AM,27.5,25.7,93,29.66,7.0,West,5.8,-,N/A,,Clear,270,2014-01-11 06:35:00
12:55 AM,27.5,25.5,92,29.66,10.0,West,5.8,-,N/A,,Clear,270,2014-01-11 06:55:00
1:15 AM,26.4,24.6,93,29.66,7.0,West,8.1,-,N/A,,Clear,280,2014-01-11 07:15:00
1:35 AM,27.3,25.2,92,29.67,10.0,West,9.2,-,N/A,,Clear,280,2014-01-11 07:35:00
1:55 AM,27.3,25.2,92,29.68,10.0,West,10.4,-,N/A,,Scattered Clouds,280,2014-01-11 07:55:00
2:15 AM,26.6,24.3,91,29.68,10.0,West,8.1,-,N/A,,Scattered Clouds,280,2014-01-11 08:15:00
2:35 AM,25.2,23.0,91,29.68,10.0,West,6.9,-,N/A,,Clear,260,2014-01-11 08:35:00
2:55 AM,24.8,22.6,91,29.69,10.0,West,5.8,-,N/A,,Clear,270,2014-01-11 08:55:00
3:15 AM,24.6,22.3,91,29.69,10.0,West,6.9,-,N/A,,Clear,270,2014-01-11 09:15:00
3:35 AM,24.4,21.9,90,29.69,10.0,West,6.9,-,N/A,,Clear,280,2014-01-11 09:35:00
3:55 AM,23.9,21.4,90,29.69,10.0,West,6.9,-,N/A,,Clear,260,2014-01-11 09:55:00
4:15 AM,25.9,23.2,90,29.69,10.0,West,6.9,-,N/A,,Mostly Cloudy,270,2014-01-11 10:15:00
4:35 AM,27.5,24.6,89,29.68,10.0,West,9.2,-,N/A,,Overcast,260,2014-01-11 10:35:00
4:55 AM,27.3,24.3,88,29.70,10.0,West,11.5,-,N/A,,Overcast,270,2014-01-11 10:55:00
5:15 AM,28.4,25.2,88,29.70,10.0,West,10.4,-,N/A,,Overcast,270,2014-01-11 11:15:00
5:35 AM,29.3,25.7,86,29.72,10.0,West,11.5,-,N/A,,Overcast,280,2014-01-11 11:35:00
5:55 AM,29.7,26.1,86,29.73,10.0,West,9.2,-,N/A,,Overcast,270,2014-01-11 11:55:00
6:15 AM,29.8,26.4,87,29.73,10.0,West,9.2,-,N/A,,Overcast,270,2014-01-11 12:15:00
6:35 AM,30.6,27.1,87,29.73,10.0,West,10.4,-,N/A,,Overcast,280,2014-01-11 12:35:00
6:55 AM,30.9,27.3,86,29.75,10.0,West,9.2,-,N/A,,Mostly Cloudy,270,2014-01-11 12:55:00
7:15 AM,30.2,26.6,86,29.75,10.0,West,8.1,-,N/A,,Scattered Clouds,270,2014-01-11 13:15:00
7:35 AM,30.9,27.5,87,29.76,10.0,West,8.1,-,N/A,,Overcast,270,2014-01-11 13:35:00
7:55 AM,29.8,26.6,88,29.76,10.0,West,9.2,-,N/A,,Scattered Clouds,280,2014-01-11 13:55:00
8:15 AM,30.9,27.1,86,29.76,10.0,West,10.4,-,N/A,,Clear,280,2014-01-11 14:15:00
8:35 AM,31.3,27.1,85,29.78,10.0,West,9.2,-,N/A,,Clear,280,2014-01-11 14:35:00
8:55 AM,31.8,27.3,83,29.79,10.0,West,9.2,-,N/A,,Clear,280,2014-01-11 14:55:00
9:15 AM,33.3,28.4,82,29.80,10.0,WNW,10.4,-,N/A,,Clear,290,2014-01-11 15:15:00
9:35 AM,34.5,29.8,83,29.81,10.0,WNW,9.2,-,N/A,,Clear,300,2014-01-11 15:35:00
9:55 AM,36.5,30.6,79,29.82,10.0,WNW,10.4,-,N/A,,Clear,300,2014-01-11 15:55:00
10:15 AM,37.9,31.8,79,29.83,10.0,WNW,9.2,-,N/A,,Clear,290,2014-01-11 16:15:00
10:35 AM,38.5,31.6,76,29.83,10.0,NW,12.7,18.4,N/A,,Clear,310,2014-01-11 16:35:00
10:55 AM,39.4,31.6,74,29.84,10.0,NW,13.8,-,N/A,,Clear,310,2014-01-11 16:55:00
11:15 AM,39.7,31.6,73,29.84,10.0,NW,16.1,-,N/A,,Clear,310,2014-01-11 17:15:00
11:35 AM,40.5,32.0,72,29.85,10.0,NW,13.8,19.6,N/A,,Clear,310,2014-01-11 17:35:00
11:55 AM,41.0,31.8,70,29.85,10.0,NW,16.1,-,N/A,,Clear,310,2014-01-11 17:55:00
12:15 PM,41.5,31.8,68,29.84,10.0,NW,17.3,-,N/A,,Clear,320,2014-01-11 18:15:00
12:35 PM,42.3,32.0,67,29.83,10.0,NW,19.6,-,N/A,,Clear,310,2014-01-11 18:35:00
12:55 PM,42.8,31.5,64,29.83,10.0,NW,17.3,21.9,N/A,,Clear,310,2014-01-11 18:55:00
1:15 PM,44.1,32.0,63,29.83,10.0,NW,15.0,20.7,N/A,,Clear,310,2014-01-11 19:15:00
1:35 PM,44.2,31.1,60,29.82,10.0,NW,17.3,23.0,N/A,,Clear,320,2014-01-11 19:35:00
1:55 PM,45.3,30.9,57,29.83,10.0,WNW,12.7,-,N/A,,Clear,300,2014-01-11 19:55:00
2:15 PM,46.4,29.5,52,29.83,10.0,WNW,11.5,-,N/A,,Clear,290,2014-01-11 20:15:00
2:35 PM,46.6,29.3,51,29.83,10.0,WNW,15.0,20.7,N/A,,Clear,290,2014-01-11 20:35:00
2:55 PM,46.8,29.5,51,29.83,10.0,WNW,15.0,20.7,N/A,,Clear,300,2014-01-11 20:55:00
3:15 PM,47.3,30.2,52,29.84,10.0,WNW,11.5,-,N/A,,Clear,290,2014-01-11 21:15:00
3:35 PM,47.5,29.7,50,29.85,10.0,West,12.7,-,N/A,,Clear,280,2014-01-11 21:35:00
3:55 PM,47.5,28.8,48,29.85,10.0,WNW,10.4,-,N/A,,Clear,290,2014-01-11 21:55:00
4:15 PM,46.6,28.2,49,29.84,10.0,WNW,9.2,-,N/A,,Clear,300,2014-01-11 22:15:00
4:35 PM,45.5,28.4,51,29.84,10.0,WNW,8.1,-,N/A,,Clear,300,2014-01-11 22:35:00
4:55 PM,43.3,28.0,55,29.84,10.0,West,3.5,-,N/A,,Clear,280,2014-01-11 22:55:00
5:15 PM,41.2,27.5,58,29.84,10.0,West,4.6,-,N/A,,Clear,260,2014-01-11 23:15:00
5:35 PM,36.1,26.6,68,29.84,10.0,WSW,4.6,-,N/A,,Clear,240,2014-01-11 23:35:00
5:55 PM,34.7,26.1,71,29.84,10.0,SSW,6.9,-,N/A,,Clear,210,2014-01-11 23:55:00
6:15 PM,33.3,25.7,74,29.83,10.0,SSW,5.8,-,N/A,,Clear,210,2014-01-12 00:15:00
6:35 PM,34.7,26.4,72,29.84,10.0,SSW,5.8,-,N/A,,Clear,200,2014-01-12 00:35:00
6:55 PM,36.0,26.6,69,29.83,10.0,South,5.8,-,N/A,,Clear,190,2014-01-12 00:55:00
7:15 PM,33.1,26.1,75,29.83,10.0,South,6.9,-,N/A,,Clear,190,2014-01-12 01:15:00
7:35 PM,33.8,26.2,74,29.83,10.0,SSW,8.1,-,N/A,,Clear,200,2014-01-12 01:35:00
7:50 PM,33.1,26.4,77,29.83,10.0,SSW,8.1,-,N/A,,Clear,200,2014-01-12 01:50:00
8:15 PM,34.0,26.6,74,29.82,10.0,South,8.1,-,N/A,,Clear,190,2014-01-12 02:15:00
8:35 PM,34.7,27.1,74,29.81,10.0,South,5.8,-,N/A,,Clear,180,2014-01-12 02:35:00
8:55 PM,33.1,26.8,78,29.80,10.0,South,5.8,-,N/A,,Clear,180,2014-01-12 02:55:00
9:15 PM,33.8,27.5,78,29.80,10.0,South,8.1,-,N/A,,Clear,190,2014-01-12 03:15:00
9:35 PM,36.0,29.1,76,29.80,10.0,South,10.4,-,N/A,,Clear,190,2014-01-12 03:35:00
9:55 PM,36.5,29.3,75,29.80,10.0,South,12.7,-,N/A,,Clear,180,2014-01-12 03:55:00
10:15 PM,36.3,29.3,76,29.79,10.0,South,12.7,-,N/A,,Clear,180,2014-01-12 04:15:00
10:35 PM,37.2,29.1,73,29.79,10.0,South,11.5,-,N/A,,Clear,180,2014-01-12 04:35:00
10:55 PM,36.3,28.9,75,29.78,10.0,South,11.5,-,N/A,,Clear,170,2014-01-12 04:55:00
11:15 PM,36.0,28.9,76,29.77,10.0,South,9.2,-,N/A,,Clear,170,2014-01-12 05:15:00
11:35 PM,36.1,28.9,75,29.76,10.0,South,9.2,-,N/A,,Clear,170,2014-01-12 05:35:00
11:55 PM,36.5,28.9,74,29.75,10.0,South,10.4,-,N/A,,Clear,180,2014-01-12 05:55:00